Time;durP1;ratioP1;P1;durP2;ratioP2;P2;SDS_P1;SDS_P2;PMS_P1;PMS_P2;Temp;Humidity;BMP_temperature;BMP_pressure;BME280_temperature;BME280_humidity;BME280_pressure;Samples;Min_cycle;Max_cycle;Signal;HPM_P1;HPM_P2
2021/08/15 00:00:12;;;;;;;19.20;11.93;;;;;;;22.79;100.00;96032.13;1044299;28;20017;-71
2021/08/15 00:00:42;;;;;;;19.30;12.48;;;;;;;22.83;100.00;96037.69;1044327;28;20091;-71
2021/08/15 00:01:13;;;;;;;20.73;12.87;;;;;;;22.83;100.00;96033.03;1045244;28;20021;-71
2021/08/15 00:01:44;;;;;;;21.57;12.90;;;;;;;22.83;100.00;96029.53;1044562;28;20123;-71
2021/08/15 00:02:14;;;;;;;19.43;12.63;;;;;;;22.83;100.00;96041.22;1044239;28;20024;-71
2021/08/15 00:02:45;;;;;;;20.03;12.80;;;;;;;22.82;100.00;96034.16;1044625;28;20059;-71
2021/08/15 00:03:15;;;;;;;19.40;12.60;;;;;;;22.80;100.00;96035.66;1044555;28;20036;-71
2021/08/15 00:03:46;;;;;;;20.90;12.33;;;;;;;22.83;100.00;96033.03;1044550;28;20021;-71
2021/08/15 00:04:17;;;;;;;21.63;12.32;;;;;;;22.81;100.00;96029.06;1044621;28;20492;-71
2021/08/15 00:04:47;;;;;;;24.30;12.33;;;;;;;22.82;100.00;96033.34;1044508;28;20035;-71
2021/08/15 00:05:18;;;;;;;21.33;12.13;;;;;;;22.81;100.00;96034.50;1044565;28;20025;-71
2021/08/15 00:05:48;;;;;;;22.37;12.87;;;;;;;22.79;100.00;96034.84;1044276;28;20017;-71
2021/08/15 00:06:19;;;;;;;21.17;12.93;;;;;;;22.81;100.00;96020.88;1044210;28;20426;-71
2021/08/15 00:06:49;;;;;;;20.90;13.20;;;;;;;22.80;100.00;96030.19;1040058;28;20029;-71
2021/08/15 00:07:20;;;;;;;21.13;12.60;;;;;;;22.80;100.00;96031.00;1036029;28;20022;-71
2021/08/15 00:07:50;;;;;;;20.47;12.90;;;;;;;22.79;100.00;96032.13;1040087;28;20022;-71
2021/08/15 00:08:20;;;;;;;19.90;12.90;;;;;;;22.78;100.00;96025.09;1036044;28;20036;-71
2021/08/15 00:08:51;;;;;;;19.40;12.33;;;;;;;22.77;100.00;96028.94;1040142;28;20076;-71
2021/08/15 00:09:21;;;;;;;20.20;12.73;;;;;;;22.76;100.00;96024.66;1039968;28;20067;-71
2021/08/15 00:09:52;;;;;;;18.03;12.03;;;;;;;22.77;100.00;96030.88;1040180;28;20060;-71
2021/08/15 00:10:22;;;;;;;22.37;12.67;;;;;;;22.75;100.00;96031.25;1044218;28;20047;-71
2021/08/15 00:10:52;;;;;;;19.30;11.90;;;;;;;22.75;100.00;96028.50;1044191;28;20017;-71
2021/08/15 00:11:23;;;;;;;24.80;13.80;;;;;;;22.73;100.00;96025.34;1044495;28;20013;-71
2021/08/15 00:11:53;;;;;;;24.27;12.63;;;;;;;22.73;100.00;96035.47;1044089;28;20032;-71
2021/08/15 00:12:24;;;;;;;22.37;12.30;;;;;;;22.73;100.00;96036.25;1044212;28;20024;-71
2021/08/15 00:12:54;;;;;;;18.60;11.60;;;;;;;22.72;100.00;96025.69;1044049;28;20029;-71
2021/08/15 00:13:25;;;;;;;20.07;12.00;;;;;;;22.71;100.00;96029.56;1044251;28;20017;-71
2021/08/15 00:13:55;;;;;;;20.90;12.43;;;;;;;22.70;100.00;96028.75;1044234;28;20036;-71
2021/08/15 00:14:25;;;;;;;21.30;12.27;;;;;;;22.69;100.00;96037.28;1040105;28;20033;-71
2021/08/15 00:14:56;;;;;;;22.17;13.70;;;;;;;22.66;100.00;96030.59;1044161;28;20024;-71
2021/08/15 00:15:26;;;;;;;19.90;12.77;;;;;;;22.69;100.00;96037.28;1040048;28;20025;-71
2021/08/15 00:15:57;;;;;;;19.37;12.57;;;;;;;22.65;100.00;96026.28;1040173;28;20068;-71
2021/08/15 00:16:27;;;;;;;23.93;12.97;;;;;;;22.65;100.00;96034.47;1044247;28;20399;-71
2021/08/15 00:16:57;;;;;;;23.60;12.30;;;;;;;22.66;100.00;96030.59;1039900;28;20519;-71
2021/08/15 00:17:28;;;;;;;27.20;13.20;;;;;;;22.67;100.00;96029.44;1040256;28;20029;-71
2021/08/15 00:17:58;;;;;;;20.03;13.00;;;;;;;22.66;100.00;96029.81;1040199;28;20494;-71
2021/08/15 00:18:29;;;;;;;27.63;12.57;;;;;;;22.64;100.00;96027.44;1040191;28;20018;-71
2021/08/15 00:19:04;;;;;;;23.60;13.47;;;;;;;22.63;100.00;96028.56;1044227;28;20432;-71
2021/08/15 00:19:35;;;;;;;19.85;13.25;;;;;;;22.62;100.00;96026.97;1044293;28;20092;-71
2021/08/15 00:20:06;;;;;;;21.27;13.40;;;;;;;22.63;100.00;96028.56;1044238;28;20036;-71
2021/08/15 00:20:37;;;;;;;21.15;13.07;;;;;;;22.60;100.00;96023.03;1044273;28;20009;-71
2021/08/15 00:21:07;;;;;;;20.70;12.57;;;;;;;22.58;100.00;96026.09;1044561;28;20102;-71
2021/08/15 00:21:38;;;;;;;21.73;13.23;;;;;;;22.56;100.00;96026.41;1044447;28;20416;-71
2021/08/15 00:22:08;;;;;;;22.00;13.03;;;;;;;22.57;100.00;96024.50;1044566;28;20024;-71
2021/08/15 00:22:40;;;;;;;20.60;12.53;;;;;;;22.54;100.00;96026.00;1039909;28;20017;-71
2021/08/15 00:23:10;;;;;;;19.63;12.82;;;;;;;22.55;100.00;96024.84;1040084;28;20114;-71
2021/08/15 00:23:40;;;;;;;23.13;12.90;;;;;;;22.55;100.00;96024.06;1040092;28;20024;-71
2021/08/15 00:24:11;;;;;;;22.30;12.47;;;;;;;22.54;100.00;96015.09;1040445;28;20032;-70
2021/08/15 00:24:41;;;;;;;21.47;13.17;;;;;;;22.54;100.00;96022.47;1044488;28;20428;-71
2021/08/15 00:25:13;;;;;;;21.60;12.57;;;;;;;22.53;100.00;96018.97;1044572;28;20051;-71
2021/08/15 00:25:44;;;;;;;21.33;13.05;;;;;;;22.51;100.00;96015.78;1044488;28;20021;-71
2021/08/15 00:26:14;;;;;;;22.47;12.80;;;;;;;22.52;100.00;96016.56;1044758;28;20013;-71
2021/08/15 00:26:45;;;;;;;27.27;13.93;;;;;;;22.52;100.00;96022.00;1044305;28;20024;-71
2021/08/15 00:27:15;;;;;;;25.43;12.70;;;;;;;22.51;100.00;96021.22;1044319;28;20115;-71
2021/08/15 00:27:46;;;;;;;26.40;13.20;;;;;;;22.51;100.00;96013.06;1040139;28;20025;-71
2021/08/15 00:28:16;;;;;;;23.53;13.67;;;;;;;22.51;100.00;96020.44;1040275;28;20029;-71
2021/08/15 00:28:46;;;;;;;19.33;12.37;;;;;;;22.50;100.00;96021.56;1044359;28;20551;-71
2021/08/15 00:29:17;;;;;;;21.30;13.77;;;;;;;22.50;100.00;96022.38;1044428;28;20437;-71
2021/08/15 00:29:47;;;;;;;23.50;12.60;;;;;;;22.50;100.00;96013.41;1044716;28;20024;-71
2021/08/15 00:30:18;;;;;;;21.23;12.83;;;;;;;22.49;100.00;96014.56;1044631;28;20036;-71
2021/08/15 00:30:48;;;;;;;21.03;13.10;;;;;;;22.47;100.00;96014.91;1046020;28;20108;-71
2021/08/15 00:31:19;;;;;;;24.97;12.43;;;;;;;22.46;100.00;96018.75;1046820;28;20025;-72
2021/08/15 00:31:50;;;;;;;21.83;13.13;;;;;;;22.45;100.00;96014.44;1046874;28;20028;-71
2021/08/15 00:32:20;;;;;;;22.55;12.82;;;;;;;22.45;100.00;96009.00;1047132;28;20032;-71
2021/08/15 00:32:51;;;;;;;21.53;13.27;;;;;;;22.45;100.00;96010.94;1047130;28;20470;-71
2021/08/15 00:33:21;;;;;;;27.90;13.40;;;;;;;22.44;100.00;96012.06;1046551;28;20029;-71
2021/08/15 00:33:52;;;;;;;20.00;12.07;;;;;;;22.43;100.00;96016.72;1046698;28;20029;-71
2021/08/15 00:34:22;;;;;;;19.57;12.47;;;;;;;22.43;100.00;96011.28;1047022;28;20262;-72
2021/08/15 00:34:52;;;;;;;22.73;12.80;;;;;;;22.43;100.00;96015.94;1047103;28;20020;-71
2021/08/15 00:35:23;;;;;;;23.23;13.10;;;;;;;22.42;100.00;96012.44;1047151;28;20021;-71
2021/08/15 00:35:53;;;;;;;24.47;12.97;;;;;;;22.41;100.00;96013.53;1046642;28;20028;-71
2021/08/15 00:36:24;;;;;;;21.00;13.70;;;;;;;22.41;100.00;96015.47;1046723;28;20032;-71
2021/08/15 00:36:54;;;;;;;22.13;12.90;;;;;;;22.41;100.00;96018.19;1046651;28;20028;-71
2021/08/15 00:37:24;;;;;;;20.20;12.57;;;;;;;22.42;100.00;96012.44;1046743;28;20021;-71
2021/08/15 00:37:55;;;;;;;23.27;12.97;;;;;;;22.42;100.00;96011.59;1047002;28;20025;-71
2021/08/15 00:38:25;;;;;;;24.43;13.23;;;;;;;22.40;100.00;96009.25;1046749;28;20025;-72
2021/08/15 00:38:56;;;;;;;19.73;12.60;;;;;;;22.40;100.00;96008.44;1047055;28;20033;-71
2021/08/15 00:39:26;;;;;;;20.23;12.57;;;;;;;22.40;100.00;96013.91;1047179;28;20508;-71
2021/08/15 00:39:56;;;;;;;23.77;12.50;;;;;;;22.39;100.00;96012.31;1047263;28;20036;-71
2021/08/15 00:40:27;;;;;;;20.57;13.47;;;;;;;22.38;100.00;96016.19;1046947;28;20040;-71
2021/08/15 00:40:57;;;;;;;19.60;12.23;;;;;;;22.39;100.00;96013.09;1047240;28;20025;-71
2021/08/15 00:41:28;;;;;;;22.50;12.50;;;;;;;22.39;100.00;96013.09;1047186;28;20024;-71
2021/08/15 00:41:58;;;;;;;23.77;12.87;;;;;;;22.38;100.00;96005.28;1047242;28;20021;-71
2021/08/15 00:42:29;;;;;;;23.97;12.13;;;;;;;22.38;100.00;96022.41;1047244;28;20071;-71
2021/08/15 00:42:59;;;;;;;22.20;12.23;;;;;;;22.39;100.00;96009.59;1046481;28;20021;-71
2021/08/15 00:43:31;;;;;;;20.40;12.73;;;;;;;22.38;100.00;96011.53;1044175;28;20091;-71
2021/08/15 00:44:02;;;;;;;21.15;12.77;;;;;;;22.37;100.00;96009.94;1044198;28;20036;-71
2021/08/15 00:44:33;;;;;;;20.40;11.90;;;;;;;22.37;100.00;96011.84;1044587;28;20037;-71
2021/08/15 00:45:04;;;;;;;18.37;12.50;;;;;;;22.38;100.00;96021.63;1044575;28;20047;-71
2021/08/15 00:45:34;;;;;;;16.77;12.63;;;;;;;22.37;100.00;96011.84;1044512;28;20440;-71
2021/08/15 00:46:11;;;;;;;21.07;12.30;;;;;;;22.38;100.00;96006.09;1044190;28;20033;-71
2021/08/15 00:46:41;;;;;;;21.58;12.27;;;;;;;22.38;100.00;96006.09;1044232;28;20025;-71
2021/08/15 00:47:12;;;;;;;21.07;12.70;;;;;;;22.36;100.00;96008.34;1044320;28;20025;-71
2021/08/15 00:47:42;;;;;;;26.07;12.80;;;;;;;22.35;100.00;96004.03;1040228;28;20024;-71
2021/08/15 00:48:13;;;;;;;23.03;12.77;;;;;;;22.34;100.00;96007.91;1040420;28;20021;-71
2021/08/15 00:48:43;;;;;;;23.23;12.57;;;;;;;22.34;100.00;96007.91;1040341;28;20038;-71
2021/08/15 00:49:14;;;;;;;18.97;12.60;;;;;;;22.34;100.00;96005.19;1036327;28;20490;-71
2021/08/15 00:49:44;;;;;;;17.93;11.80;;;;;;;22.34;100.00;96012.56;1044246;28;20029;-71
2021/08/15 00:50:14;;;;;;;24.63;12.77;;;;;;;22.33;100.00;96006.31;1044486;28;20025;-72
2021/08/15 00:50:45;;;;;;;21.50;12.40;;;;;;;22.30;100.00;96018.69;1036215;28;20026;-72
2021/08/15 00:51:15;;;;;;;21.23;12.23;;;;;;;22.29;100.00;96008.16;1040270;28;20080;-72
2021/08/15 00:51:46;;;;;;;18.13;12.87;;;;;;;22.30;100.00;96010.50;1040664;28;20033;-72
2021/08/15 00:52:16;;;;;;;23.00;13.27;;;;;;;22.29;100.00;96013.59;1040934;28;20044;-72
2021/08/15 00:52:47;;;;;;;28.37;13.60;;;;;;;22.27;100.00;96008.50;1045273;28;20028;-72
2021/08/15 00:53:17;;;;;;;23.80;12.10;;;;;;;22.25;100.00;96008.03;1044240;28;20039;-72
2021/08/15 00:53:49;;;;;;;23.10;13.40;;;;;;;22.26;100.00;96011.53;1045032;28;20032;-72
2021/08/15 00:54:19;;;;;;;18.08;13.07;;;;;;;22.24;100.00;96009.19;1044822;28;20052;-72
2021/08/15 00:54:50;;;;;;;24.80;12.90;;;;;;;22.22;100.00;96008.75;1044628;28;20024;-72
2021/08/15 00:55:20;;;;;;;20.93;13.17;;;;;;;22.20;100.00;96005.56;1045237;28;20020;-72
2021/08/15 00:55:50;;;;;;;24.00;13.13;;;;;;;22.21;100.00;96011.78;1040272;28;20030;-71
2021/08/15 00:56:21;;;;;;;19.50;12.63;;;;;;;22.23;100.00;96004.88;1040210;28;20029;-72
2021/08/15 00:56:54;;;;;;;18.47;12.10;;;;;;;22.23;100.00;96010.31;1040568;28;20021;-71
2021/08/15 00:57:26;;;;;;;23.42;13.45;;;;;;;22.19;100.00;96014.84;1041183;28;20029;-72
2021/08/15 00:57:56;;;;;;;21.95;13.02;;;;;;;22.20;100.00;96011.00;1044994;28;20119;-72
2021/08/15 00:58:31;;;;;;;22.07;13.17;;;;;;;22.20;100.00;96010.19;1044810;28;20458;-72
2021/08/15 00:59:04;;;;;;;22.35;13.77;;;;;;;22.18;100.00;96009.75;1040716;28;20451;-71
2021/08/15 00:59:40;;;;;;;22.90;13.32;;;;;;;22.17;100.00;96008.97;1040845;28;20048;-72
2021/08/15 01:00:11;;;;;;;22.85;13.57;;;;;;;22.16;100.00;96009.31;1040800;28;20021;-72
2021/08/15 01:00:42;;;;;;;22.52;13.57;;;;;;;22.15;100.00;96002.28;1039127;28;20026;-72
2021/08/15 01:01:12;;;;;;;24.60;13.30;;;;;;;22.15;100.00;96005.78;1042505;28;20025;-72
2021/08/15 01:01:43;;;;;;;23.17;13.90;;;;;;;22.15;100.00;96008.50;1045422;28;20021;-72
2021/08/15 01:02:13;;;;;;;21.73;12.73;;;;;;;22.13;100.00;96008.06;1045651;28;20025;-72
2021/08/15 01:02:44;;;;;;;25.20;13.77;;;;;;;22.05;100.00;95998.06;1046040;28;20382;-72
2021/08/15 01:03:17;;;;;;;19.75;12.80;;;;;;;22.04;100.00;96007.38;1045414;28;20028;-72
2021/08/15 01:03:48;;;;;;;21.90;12.88;;;;;;;22.03;100.00;96003.84;1045073;28;20052;-72
2021/08/15 01:04:19;;;;;;;22.23;13.90;;;;;;;22.00;100.00;96001.81;1044608;28;20021;-72
2021/08/15 01:04:49;;;;;;;20.50;12.98;;;;;;;22.01;100.00;96005.34;1044868;28;20025;-72
2021/08/15 01:05:20;;;;;;;21.90;12.37;;;;;;;22.00;100.00;96004.53;1044582;28;20172;-71
2021/08/15 01:05:50;;;;;;;23.70;12.53;;;;;;;22.00;100.00;96003.75;1044789;28;20070;-72
2021/08/15 01:06:21;;;;;;;18.20;12.87;;;;;;;21.99;100.00;96002.97;1045492;28;20071;-72
2021/08/15 01:06:51;;;;;;;20.17;13.37;;;;;;;21.95;100.00;95998.53;1045080;28;20055;-72
2021/08/15 01:07:22;;;;;;;22.53;12.83;;;;;;;21.96;100.00;95997.44;1044751;28;20044;-72
2021/08/15 01:07:52;;;;;;;22.90;12.97;;;;;;;21.96;100.00;96005.59;1044593;28;20470;-71
2021/08/15 01:08:22;;;;;;;21.13;11.57;;;;;;;21.97;100.00;96001.72;1044744;28;20578;-72
2021/08/15 01:08:53;;;;;;;20.20;13.07;;;;;;;21.96;100.00;96003.66;1041626;28;20044;-72
2021/08/15 01:09:23;;;;;;;18.20;12.53;;;;;;;21.95;100.00;95995.81;1041557;28;20123;-72
2021/08/15 01:09:54;;;;;;;22.20;13.87;;;;;;;21.96;100.00;95997.44;1037285;28;20030;-72
2021/08/15 01:10:24;;;;;;;22.33;13.17;;;;;;;21.98;100.00;95995.16;1033666;28;20526;-72
2021/08/15 01:10:55;;;;;;;19.73;12.60;;;;;;;21.98;100.00;96003.31;1037468;28;20030;-72
2021/08/15 01:11:25;;;;;;;21.93;12.40;;;;;;;21.97;100.00;96002.53;1037224;28;20036;-71
2021/08/15 01:11:56;;;;;;;21.03;12.50;;;;;;;21.96;100.00;95998.22;1041020;28;20493;-71
2021/08/15 01:12:27;;;;;;;19.67;12.67;;;;;;;21.97;100.00;95999.78;1045683;28;20048;-72
2021/08/15 01:12:57;;;;;;;22.35;12.68;;;;;;;21.99;100.00;96002.16;1037440;28;20091;-71
2021/08/15 01:13:29;;;;;;;21.80;12.37;;;;;;;21.96;100.00;96000.94;1041675;28;20076;-72
2021/08/15 01:14:01;;;;;;;22.33;12.88;;;;;;;21.99;100.00;96004.88;1037215;28;20029;-72
2021/08/15 01:14:31;;;;;;;19.38;12.80;;;;;;;21.99;100.00;96004.88;1038451;28;20065;-71
2021/08/15 01:15:02;;;;;;;23.50;12.40;;;;;;;21.98;100.00;95998.66;1045502;28;20025;-72
2021/08/15 01:15:33;;;;;;;19.80;12.50;;;;;;;22.01;100.00;95999.91;1041980;28;20025;-72
2021/08/15 01:16:04;;;;;;;20.90;12.87;;;;;;;22.02;100.00;96009.66;1045695;28;20103;-72
2021/08/15 01:16:44;;;;;;;18.98;12.30;;;;;;;22.04;100.00;96005.44;1045695;28;20032;-72
2021/08/15 01:17:14;;;;;;;21.83;12.52;;;;;;;22.04;100.00;95996.50;1045372;28;20063;-72
2021/08/15 01:17:45;;;;;;;19.50;12.43;;;;;;;22.05;100.00;96004.31;1045580;28;20047;-71
2021/08/15 01:18:27;;;;;;;18.33;13.17;;;;;;;22.04;100.00;95999.22;1044169;28;20114;-71
2021/08/15 01:18:58;;;;;;;18.52;12.48;;;;;;;22.02;100.00;96002.28;1044057;28;20013;-72
2021/08/15 01:19:29;;;;;;;21.97;12.50;;;;;;;21.99;100.00;95994.78;1044047;28;20419;-71
2021/08/15 01:19:59;;;;;;;21.80;12.90;;;;;;;22.00;100.00;96001.81;1044220;28;20095;-72
2021/08/15 01:20:30;;;;;;;17.13;12.03;;;;;;;22.00;100.00;96001.81;1044375;28;20021;-71
2021/08/15 01:21:13;;;;;;;18.97;12.90;;;;;;;21.99;100.00;96000.25;1044361;28;20347;-71
2021/08/15 01:21:44;;;;;;;19.98;12.57;;;;;;;21.95;100.00;95995.81;1044362;28;20513;-71
2021/08/15 01:22:14;;;;;;;22.87;13.20;;;;;;;21.91;100.00;95987.56;1044335;28;20020;-72
2021/08/15 01:22:45;;;;;;;23.73;13.00;;;;;;;21.92;100.00;95993.81;1044464;28;20512;-71
2021/08/15 01:23:15;;;;;;;21.73;13.18;;;;;;;21.90;100.00;95994.13;1044040;28;20052;-71
2021/08/15 01:23:46;;;;;;;23.70;13.27;;;;;;;21.90;100.00;95996.06;1039915;28;20025;-72
2021/08/15 01:24:16;;;;;;;21.67;13.03;;;;;;;21.84;100.00;95986.53;1039924;28;20080;-71
2021/08/15 01:24:48;;;;;;;20.63;12.90;;;;;;;21.82;100.00;95989.63;1040066;28;20067;-71
2021/08/15 01:25:19;;;;;;;22.05;13.65;;;;;;;21.80;100.00;95987.25;1044002;28;20056;-71
2021/08/15 01:25:49;;;;;;;20.03;12.23;;;;;;;21.80;100.00;95992.69;1044422;28;20025;-71
2021/08/15 01:26:20;;;;;;;25.47;12.57;;;;;;;21.82;100.00;95986.09;1044371;28;20022;-71
2021/08/15 01:26:51;;;;;;;23.92;12.88;;;;;;;21.82;100.00;95983.38;1044095;28;20096;-72
2021/08/15 01:27:21;;;;;;;30.37;13.53;;;;;;;21.81;100.00;95985.31;1035686;28;20026;-72
2021/08/15 01:27:52;;;;;;;26.80;12.97;;;;;;;21.82;100.00;95986.91;1031768;28;20357;-71
2021/08/15 01:28:22;;;;;;;22.63;13.50;;;;;;;21.81;100.00;95985.31;1031868;28;20118;-71
2021/08/15 01:28:53;;;;;;;21.03;11.90;;;;;;;21.80;100.00;95984.53;1036008;28;20049;-71
2021/08/15 01:29:23;;;;;;;18.27;12.40;;;;;;;21.79;100.00;95982.91;1043959;28;20010;-71
2021/08/15 01:29:54;;;;;;;21.90;13.33;;;;;;;21.78;100.00;95980.56;1044090;28;20505;-71
2021/08/15 01:30:26;;;;;;;21.83;12.93;;;;;;;21.79;100.00;95979.41;1044007;28;20017;-71
2021/08/15 01:30:57;;;;;;;22.52;13.02;;;;;;;21.80;100.00;95984.53;1044063;28;20017;-71
2021/08/15 01:31:27;;;;;;;22.03;12.53;;;;;;;21.79;100.00;95984.84;1040230;28;20370;-71
2021/08/15 01:31:57;;;;;;;17.80;12.50;;;;;;;21.79;100.00;95979.41;1043961;28;20035;-71
2021/08/15 01:32:28;;;;;;;22.33;12.03;;;;;;;21.78;100.00;95983.28;1044013;28;20040;-71
2021/08/15 01:32:58;;;;;;;21.10;13.47;;;;;;;21.76;100.00;95980.91;1044076;28;20024;-71
2021/08/15 01:33:30;;;;;;;19.80;12.17;;;;;;;21.77;100.00;95981.69;1044041;28;20470;-71
2021/08/15 01:34:01;;;;;;;20.40;12.45;;;;;;;21.78;100.00;95981.34;1044094;28;20036;-72
2021/08/15 01:34:31;;;;;;;20.33;12.43;;;;;;;21.78;100.00;95977.81;1044026;28;20025;-71
2021/08/15 01:35:02;;;;;;;19.20;12.30;;;;;;;21.78;100.00;95978.63;1044083;28;20370;-71
2021/08/15 01:35:33;;;;;;;23.15;12.25;;;;;;;21.79;100.00;95977.47;1044222;28;20021;-71
2021/08/15 01:36:03;;;;;;;26.80;12.73;;;;;;;21.78;100.00;95977.81;1044393;28;20473;-71
2021/08/15 01:36:34;;;;;;;20.63;12.47;;;;;;;21.78;100.00;95983.28;1044242;28;20029;-71
2021/08/15 01:37:07;;;;;;;21.00;12.53;;;;;;;21.76;100.00;95980.91;1044370;28;20079;-71
2021/08/15 01:37:37;;;;;;;19.90;12.70;;;;;;;21.77;100.00;95987.13;1044240;28;20029;-71
2021/08/15 01:38:07;;;;;;;16.33;12.03;;;;;;;21.75;100.00;95984.75;1043993;28;20029;-71
2021/08/15 01:38:38;;;;;;;19.83;12.93;;;;;;;21.75;100.00;95975.78;1044067;28;20029;-71
2021/08/15 01:39:09;;;;;;;23.13;12.43;;;;;;;21.74;100.00;95975.00;1041150;28;20053;-71
2021/08/15 01:39:40;;;;;;;29.77;13.47;;;;;;;21.73;100.00;95981.56;1039990;28;20421;-71
2021/08/15 01:40:12;;;;;;;21.05;12.98;;;;;;;21.73;100.00;95973.41;1044028;28;20494;-71
2021/08/15 01:40:42;;;;;;;18.85;11.98;;;;;;;21.74;100.00;95980.44;1044041;28;20474;-71
2021/08/15 01:41:13;;;;;;;20.17;12.60;;;;;;;21.74;100.00;95980.44;1044385;28;20028;-71
2021/08/15 01:41:43;;;;;;;21.70;12.70;;;;;;;21.73;100.00;95980.78;1039990;28;20021;-71
2021/08/15 01:42:14;;;;;;;20.30;13.10;;;;;;;21.73;100.00;95981.56;1039891;28;20037;-71
2021/08/15 01:42:44;;;;;;;18.40;12.60;;;;;;;21.73;100.00;95978.06;1040077;28;20056;-71
2021/08/15 01:43:14;;;;;;;20.83;12.40;;;;;;;21.71;100.00;95983.84;1040753;28;20096;-71
2021/08/15 01:43:58;;;;;;;20.13;11.53;;;;;;;21.70;100.00;95979.56;1044742;28;20029;-71
2021/08/15 01:44:29;;;;;;;20.50;12.52;;;;;;;21.71;100.00;95980.34;1044891;28;20029;-71
2021/08/15 01:44:59;;;;;;;24.27;12.50;;;;;;;21.71;100.00;95980.34;1045146;28;20029;-71
2021/08/15 01:45:29;;;;;;;24.53;13.57;;;;;;;21.67;100.00;95982.94;1045055;28;20033;-71
2021/08/15 01:46:01;;;;;;;20.87;12.77;;;;;;;21.69;100.00;95977.94;1044678;28;20029;-71
2021/08/15 01:46:32;;;;;;;19.25;11.85;;;;;;;21.70;100.00;95985.00;1044837;28;20024;-71
2021/08/15 01:47:02;;;;;;;24.08;12.80;;;;;;;21.69;100.00;95983.38;1044775;28;20060;-71
2021/08/15 01:47:33;;;;;;;22.17;13.37;;;;;;;21.68;100.00;95979.09;1044847;28;20025;-71
2021/08/15 01:48:03;;;;;;;19.43;12.87;;;;;;;21.70;100.00;95987.72;1045036;28;20028;-71
2021/08/15 01:48:34;;;;;;;17.10;11.90;;;;;;;21.71;100.00;95978.41;1045092;28;20031;-72
2021/08/15 01:49:04;;;;;;;16.13;12.17;;;;;;;21.69;100.00;95988.81;1045062;28;20025;-72
2021/08/15 01:49:35;;;;;;;23.03;13.37;;;;;;;21.69;100.00;95986.09;1045136;28;20037;-72
2021/08/15 01:50:06;;;;;;;19.90;12.90;;;;;;;21.68;100.00;95984.53;1044977;28;20044;-72
2021/08/15 01:50:36;;;;;;;27.23;13.30;;;;;;;21.69;100.00;95988.03;1044710;28;20044;-72
2021/08/15 01:51:06;;;;;;;23.13;12.23;;;;;;;21.68;100.00;95984.53;1032435;28;20057;-72
2021/08/15 01:51:37;;;;;;;19.53;12.30;;;;;;;21.67;100.00;95982.94;1028421;28;20027;-72
2021/08/15 01:52:07;;;;;;;22.10;12.03;;;;;;;21.67;100.00;95980.22;1024373;28;20381;-72
2021/08/15 01:52:38;;;;;;;23.90;12.43;;;;;;;21.68;100.00;95981.00;1028631;28;20015;-72
2021/08/15 01:53:09;;;;;;;19.57;12.67;;;;;;;21.65;100.00;95984.41;1036671;28;20434;-72
2021/08/15 01:53:40;;;;;;;25.15;13.15;;;;;;;21.64;100.00;95983.59;1040866;28;20032;-72
2021/08/15 01:54:10;;;;;;;23.23;12.63;;;;;;;21.63;100.00;95984.75;1044733;28;20509;-72
2021/08/15 01:54:40;;;;;;;20.37;12.47;;;;;;;21.64;100.00;95983.59;1044756;28;20033;-72
2021/08/15 01:55:11;;;;;;;18.40;11.90;;;;;;;21.63;100.00;95984.75;1044766;28;20029;-72
2021/08/15 01:55:42;;;;;;;20.13;11.95;;;;;;;21.62;100.00;95985.88;1044766;28;20500;-72
2021/08/15 01:56:12;;;;;;;20.97;13.13;;;;;;;21.65;100.00;95987.94;1044769;28;20033;-72
2021/08/15 01:56:43;;;;;;;19.00;12.87;;;;;;;21.64;100.00;95982.81;1044667;28;20016;-72
2021/08/15 01:57:13;;;;;;;21.80;13.07;;;;;;;21.62;100.00;95983.16;1044984;28;20025;-72
2021/08/15 01:57:44;;;;;;;21.03;12.73;;;;;;;21.64;100.00;95977.38;1044767;28;20032;-72
2021/08/15 01:58:15;;;;;;;22.37;12.23;;;;;;;21.67;100.00;95988.38;1040490;28;20108;-72
2021/08/15 01:58:46;;;;;;;20.10;12.48;;;;;;;21.68;100.00;95973.66;1040553;28;20041;-72
2021/08/15 01:59:16;;;;;;;21.70;12.50;;;;;;;21.72;100.00;95984.63;1040828;28;20034;-72
2021/08/15 01:59:46;;;;;;;25.87;12.50;;;;;;;21.73;100.00;95981.56;1044720;28;20036;-72
2021/08/15 02:00:17;;;;;;;22.13;12.67;;;;;;;21.74;100.00;95985.88;1045072;28;20029;-72
2021/08/15 02:00:47;;;;;;;20.20;12.43;;;;;;;21.72;100.00;95979.19;1045022;28;20025;-72
2021/08/15 02:01:19;;;;;;;19.17;12.63;;;;;;;21.70;100.00;95979.56;1045126;28;20033;-72
2021/08/15 02:01:49;;;;;;;18.73;12.63;;;;;;;21.70;100.00;95976.00;1045052;28;20100;-72
2021/08/15 02:02:20;;;;;;;18.13;12.27;;;;;;;21.69;100.00;95977.94;1045094;28;20029;-72
2021/08/15 02:02:50;;;;;;;18.43;12.47;;;;;;;21.70;100.00;95979.56;1044992;28;20127;-72
2021/08/15 02:03:21;;;;;;;16.73;12.67;;;;;;;21.73;100.00;95984.28;1045057;28;20033;-72
2021/08/15 02:03:51;;;;;;;17.60;12.70;;;;;;;21.74;100.00;95979.63;1044724;28;20021;-72
2021/08/15 02:04:22;;;;;;;18.47;12.40;;;;;;;21.71;100.00;95977.63;1044775;28;20111;-72
2021/08/15 02:04:53;;;;;;;18.45;13.00;;;;;;;21.72;100.00;95980.00;1044674;28;20548;-72
2021/08/15 02:05:23;;;;;;;20.17;13.23;;;;;;;21.74;100.00;95977.72;1044727;28;20110;-72
2021/08/15 02:05:54;;;;;;;20.40;12.30;;;;;;;21.71;100.00;95983.06;1044643;28;20025;-72
2021/08/15 02:06:24;;;;;;;20.80;12.47;;;;;;;21.74;100.00;95975.00;1044754;28;20032;-72
2021/08/15 02:06:55;;;;;;;22.97;12.93;;;;;;;21.75;100.00;95981.22;1044605;28;20022;-72
2021/08/15 02:07:25;;;;;;;21.13;12.83;;;;;;;21.74;100.00;95983.16;1044701;28;20024;-72
2021/08/15 02:07:56;;;;;;;21.57;12.87;;;;;;;21.72;100.00;95980.00;1044937;28;20040;-72
2021/08/15 02:08:26;;;;;;;20.10;13.03;;;;;;;21.75;100.00;95979.31;1036350;28;20470;-72
2021/08/15 02:08:57;;;;;;;21.60;13.37;;;;;;;21.76;100.00;95972.75;1032329;28;20022;-73
2021/08/15 02:09:27;;;;;;;20.60;12.40;;;;;;;21.76;100.00;95983.63;1032363;28;20022;-72
2021/08/15 02:09:57;;;;;;;22.83;12.67;;;;;;;21.74;100.00;95977.72;1032605;28;20038;-72
2021/08/15 02:10:28;;;;;;;19.23;12.20;;;;;;;21.73;100.00;95978.84;1044687;28;20120;-72
2021/08/15 02:10:59;;;;;;;17.15;12.30;;;;;;;21.75;100.00;95979.31;1044887;28;20200;-72
2021/08/15 02:11:29;;;;;;;17.20;11.87;;;;;;;21.76;100.00;95980.91;1046112;28;20029;-72
2021/08/15 02:12:02;;;;;;;21.93;12.80;;;;;;;21.75;100.00;95975.78;1044981;28;20021;-72
2021/08/15 02:12:32;;;;;;;17.60;12.07;;;;;;;21.75;100.00;95975.78;1045037;28;20367;-72
2021/08/15 02:13:03;;;;;;;22.03;13.13;;;;;;;21.75;100.00;95973.88;1044927;28;20036;-72
2021/08/15 02:13:34;;;;;;;17.58;12.07;;;;;;;21.70;100.00;95976.84;1045084;28;20048;-72
2021/08/15 02:14:04;;;;;;;23.73;12.50;;;;;;;21.69;100.00;95980.66;1044576;28;20060;-72
2021/08/15 02:14:35;;;;;;;19.37;13.03;;;;;;;21.67;100.00;95979.44;1040631;28;20030;-72
2021/08/15 02:15:05;;;;;;;19.87;11.93;;;;;;;21.69;100.00;95980.66;1040520;28;20025;-72
2021/08/15 02:15:36;;;;;;;19.30;13.03;;;;;;;21.65;100.00;95974.34;1036676;28;20030;-72
2021/08/15 02:16:06;;;;;;;18.03;12.87;;;;;;;21.61;100.00;95975.38;1040717;28;20021;-72
2021/08/15 02:16:37;;;;;;;20.13;13.20;;;;;;;21.61;100.00;95972.66;1044533;28;20061;-72
2021/08/15 02:17:07;;;;;;;19.83;12.93;;;;;;;21.62;100.00;95983.16;1044619;28;20040;-72
2021/08/15 02:17:37;;;;;;;17.70;12.77;;;;;;;21.63;100.00;95982.03;1044625;28;20056;-72
2021/08/15 02:18:08;;;;;;;19.03;12.67;;;;;;;21.63;100.00;95976.59;1044719;28;20609;-72
2021/08/15 02:18:38;;;;;;;16.93;12.27;;;;;;;21.64;100.00;95974.66;1040557;28;20084;-72
2021/08/15 02:19:09;;;;;;;26.23;13.73;;;;;;;21.60;100.00;95973.75;1044656;28;20025;-72
2021/08/15 02:19:40;;;;;;;25.03;13.47;;;;;;;21.59;100.00;95970.25;1040540;28;20030;-72
2021/08/15 02:20:11;;;;;;;17.47;13.37;;;;;;;21.58;100.00;95974.09;1036504;28;20057;-72